createdAt,value
2022-10-14T00:01:43.952Z,8.98
2022-10-14T00:04:16.022Z,8.77
2022-10-14T00:06:50.370Z,8.65
2022-10-14T00:09:20.758Z,8.25
2022-10-14T00:11:54.669Z,8.27
2022-10-14T00:14:36.584Z,8.80
2022-10-14T00:17:10.620Z,8.82
2022-10-14T00:19:45.354Z,9.30
2022-10-14T00:22:17.333Z,8.63
2022-10-14T00:24:50.399Z,9.07
2022-10-14T00:29:54.403Z,9.63
2022-10-14T00:32:29.333Z,8.53
2022-10-14T00:34:58.165Z,8.32
2022-10-14T00:37:27.772Z,9.02
2022-10-14T00:39:57.242Z,9.43
2022-10-14T00:42:31.339Z,9.57
2022-10-14T00:45:13.007Z,9.18
2022-10-14T00:47:50.884Z,9.13
2022-10-14T00:50:22.940Z,9.38
2022-10-14T00:52:54.767Z,9.07
2022-10-14T00:55:24.747Z,8.57
2022-10-14T00:58:03.358Z,8.40
2022-10-14T01:00:32.667Z,8.52
2022-10-14T01:03:04.337Z,9.02
2022-10-14T01:05:43.826Z,8.70
2022-10-14T01:08:21.967Z,8.52
2022-10-14T01:11:06.448Z,9.35
2022-10-14T01:13:40.809Z,8.65
2022-10-14T01:16:27.973Z,8.80
2022-10-14T01:19:28.092Z,8.68
2022-10-14T01:22:06.419Z,9.07
2022-10-14T01:24:52.295Z,8.75
2022-10-14T01:27:55.107Z,7.32
2022-10-14T01:30:26.737Z,8.55
2022-10-14T01:33:18.196Z,8.20
2022-10-14T01:36:01.690Z,8.30
2022-10-14T01:38:38.607Z,8.38
2022-10-14T01:41:18.986Z,8.43
2022-10-14T01:43:52.830Z,7.88
2022-10-14T01:46:33.612Z,7.75
2022-10-14T01:49:11.000Z,8.57
2022-10-14T01:51:45.768Z,8.63
2022-10-14T01:54:23.139Z,8.25
2022-10-14T01:56:55.317Z,8.55
2022-10-14T01:59:41.034Z,8.23
2022-10-14T02:02:17.799Z,7.90
2022-10-14T02:04:48.919Z,8.10
2022-10-14T02:07:27.446Z,7.68
2022-10-14T02:10:05.119Z,8.02
2022-10-14T02:12:42.347Z,8.45
2022-10-14T02:15:24.227Z,8.80
2022-10-14T02:18:05.178Z,7.90
2022-10-14T02:20:40.301Z,8.43
2022-10-14T02:23:20.833Z,8.10
2022-10-14T02:25:51.737Z,7.93
2022-10-14T02:28:25.430Z,8.30
2022-10-14T02:31:03.723Z,8.30
2022-10-14T02:33:54.495Z,7.60
2022-10-14T02:36:36.933Z,8.00
2022-10-14T02:39:23.607Z,8.55
2022-10-14T02:42:06.989Z,8.65
2022-10-14T02:44:55.875Z,8.52
2022-10-14T02:47:30.578Z,8.75
2022-10-14T02:50:03.504Z,7.78
2022-10-14T02:52:46.082Z,8.45
2022-10-14T02:55:29.541Z,8.43
2022-10-14T03:01:12.177Z,8.68
2022-10-14T03:03:52.188Z,9.20
2022-10-14T03:06:44.504Z,9.13
2022-10-14T03:09:18.894Z,8.55
2022-10-14T03:12:00.976Z,8.85
2022-10-14T03:14:33.823Z,9.38
2022-10-14T03:17:29.553Z,11.00
2022-10-14T03:20:29.557Z,9.55
2022-10-14T03:23:19.147Z,10.80
2022-10-14T03:26:09.495Z,10.05
2022-10-14T03:28:58.778Z,10.35
2022-10-14T03:31:34.358Z,10.55
2022-10-14T03:34:22.784Z,10.15
2022-10-14T03:37:04.207Z,10.50
2022-10-14T03:42:32.803Z,9.88
2022-10-14T03:45:25.056Z,9.20
2022-10-14T03:47:55.983Z,9.40
2022-10-14T03:50:34.554Z,10.10
2022-10-14T03:53:21.409Z,9.63
2022-10-14T03:56:09.440Z,10.23
2022-10-14T03:58:49.475Z,10.07
2022-10-14T04:01:40.738Z,9.77
2022-10-14T04:04:15.032Z,9.68
2022-10-14T04:09:45.225Z,9.93
2022-10-14T04:12:24.945Z,10.38
2022-10-14T04:15:34.665Z,11.23
2022-10-14T04:21:00.156Z,10.88
2022-10-14T04:23:29.169Z,11.25
2022-10-14T04:26:15.849Z,10.57
2022-10-14T04:28:59.156Z,12.10
2022-10-14T04:34:08.380Z,10.15
2022-10-14T04:36:50.393Z,12.32
2022-10-14T04:39:23.699Z,11.95
2022-10-14T04:42:13.167Z,12.05
2022-10-14T04:44:47.749Z,11.38
2022-10-14T04:47:16.601Z,11.70
2022-10-14T04:49:45.954Z,12.40
2022-10-14T04:52:29.193Z,11.85
2022-10-14T04:55:03.957Z,11.50
2022-10-14T04:57:34.225Z,12.20
2022-10-14T05:00:05.551Z,11.38
2022-10-14T05:02:38.597Z,12.10
2022-10-14T05:05:33.230Z,12.35
2022-10-14T05:08:18.334Z,11.73
2022-10-14T05:10:59.558Z,12.18
2022-10-14T05:13:35.253Z,12.02
2022-10-14T05:16:16.812Z,12.07
2022-10-14T05:18:47.747Z,11.63
2022-10-14T05:21:20.134Z,12.05
2022-10-14T05:24:02.184Z,11.55
2022-10-14T05:26:49.537Z,12.88
2022-10-14T05:29:24.653Z,12.45
2022-10-14T05:32:10.997Z,11.93
2022-10-14T05:34:42.573Z,12.77
2022-10-14T05:37:12.648Z,12.18
2022-10-14T05:39:48.530Z,13.23
2022-10-14T05:42:17.572Z,13.38
2022-10-14T05:44:51.117Z,13.07
2022-10-14T05:50:16.972Z,12.35
2022-10-14T05:52:50.968Z,12.55
2022-10-14T05:55:21.422Z,12.43
2022-10-14T05:57:57.641Z,13.95
2022-10-14T06:00:33.665Z,13.57
2022-10-14T06:03:12.042Z,12.23
2022-10-14T06:05:44.659Z,11.40
2022-10-14T06:08:16.674Z,12.43
2022-10-14T06:10:49.514Z,12.18
2022-10-14T06:13:21.615Z,11.75
2022-10-14T06:16:16.300Z,10.68
2022-10-14T06:18:48.093Z,12.65
2022-10-14T06:21:20.127Z,12.60
2022-10-14T06:23:48.860Z,11.10
2022-10-14T06:26:18.906Z,11.40
2022-10-14T06:28:47.931Z,10.73
2022-10-14T06:31:16.211Z,12.20
2022-10-14T06:33:45.686Z,10.75
2022-10-14T06:36:14.336Z,11.88
2022-10-14T06:38:44.295Z,11.13
2022-10-14T06:41:12.816Z,9.77
2022-10-14T06:43:45.323Z,11.27
2022-10-14T06:46:13.822Z,10.35
2022-10-14T06:48:48.044Z,11.25
2022-10-14T06:51:20.796Z,9.65
2022-10-14T06:53:49.425Z,9.57
2022-10-14T06:56:18.019Z,10.13
2022-10-14T06:58:46.486Z,8.98
2022-10-14T07:01:15.209Z,8.77
2022-10-14T07:03:43.594Z,9.13
2022-10-14T07:06:12.303Z,9.15
2022-10-14T07:08:42.215Z,8.80
2022-10-14T07:11:10.781Z,8.75
2022-10-14T07:13:41.588Z,8.82
2022-10-14T07:16:10.017Z,8.00
2022-10-14T07:18:39.580Z,8.32
2022-10-14T07:21:09.988Z,8.43
2022-10-14T07:23:40.666Z,7.70
2022-10-14T07:26:11.019Z,8.45
2022-10-14T07:28:39.464Z,7.63
2022-10-14T07:31:09.538Z,7.80
2022-10-14T07:33:41.267Z,8.13
2022-10-14T07:36:11.610Z,7.57
2022-10-14T07:38:41.578Z,7.32
2022-10-14T07:41:17.215Z,7.55
2022-10-14T07:43:46.422Z,7.43
2022-10-14T07:46:18.796Z,7.00
2022-10-14T07:48:57.302Z,7.75
2022-10-14T07:51:26.190Z,8.05
2022-10-14T07:53:54.926Z,8.15
2022-10-14T07:56:25.398Z,7.50
2022-10-14T07:58:56.782Z,7.50
2022-10-14T08:01:25.968Z,7.18
2022-10-14T08:03:55.884Z,7.63
2022-10-14T08:06:25.686Z,7.05
2022-10-14T08:08:57.604Z,6.60
2022-10-14T08:11:30.185Z,6.72
2022-10-14T08:14:01.649Z,7.13
2022-10-14T08:16:33.529Z,6.38
2022-10-14T08:19:03.796Z,6.63
2022-10-14T08:21:35.068Z,7.18
2022-10-14T08:24:03.737Z,6.13
2022-10-14T08:26:37.664Z,6.63
2022-10-14T08:29:11.137Z,6.13
2022-10-14T08:31:40.515Z,6.55
2022-10-14T08:34:14.213Z,6.45
2022-10-14T08:36:43.047Z,6.55
2022-10-14T08:39:13.379Z,5.47
2022-10-14T08:42:16.438Z,6.70
2022-10-14T08:44:55.296Z,5.32
2022-10-14T08:47:42.674Z,6.05
2022-10-14T08:50:24.858Z,6.53
2022-10-14T08:52:58.303Z,6.35
2022-10-14T08:55:35.513Z,5.30
2022-10-14T08:58:18.190Z,6.43
2022-10-14T09:00:56.305Z,6.30
2022-10-14T09:03:33.853Z,6.22
2022-10-14T09:06:13.022Z,6.35
2022-10-14T09:08:44.323Z,6.57
2022-10-14T09:11:19.360Z,6.82
2022-10-14T09:13:54.690Z,5.95
2022-10-14T09:16:26.088Z,5.43
2022-10-14T09:18:58.427Z,5.80
2022-10-14T09:24:31.483Z,5.88
2022-10-14T09:27:04.717Z,5.53
2022-10-14T09:29:39.127Z,5.70
2022-10-14T09:32:11.006Z,5.40
2022-10-14T09:34:42.155Z,5.22
2022-10-14T09:37:26.470Z,5.57
2022-10-14T09:39:57.669Z,5.53
2022-10-14T09:42:28.835Z,5.65
2022-10-14T09:45:08.764Z,5.70
2022-10-14T09:47:54.531Z,5.10
2022-10-14T09:50:32.021Z,5.60
2022-10-14T09:53:10.659Z,5.03
2022-10-14T09:55:51.289Z,4.68
2022-10-14T09:58:31.043Z,5.18
2022-10-14T10:01:07.682Z,5.18
2022-10-14T10:03:43.411Z,4.68
2022-10-14T10:06:22.844Z,4.50
2022-10-14T10:09:01.649Z,4.60
2022-10-14T10:11:33.983Z,5.20
2022-10-14T10:14:18.080Z,5.05
2022-10-14T10:16:48.540Z,4.80
2022-10-14T10:19:32.739Z,5.18
2022-10-14T10:22:24.350Z,4.80
2022-10-14T10:25:15.395Z,4.72
2022-10-14T10:27:50.526Z,4.68
2022-10-14T10:30:26.684Z,4.70
2022-10-14T10:33:26.251Z,4.40
2022-10-14T10:36:10.076Z,4.10
2022-10-14T10:38:52.118Z,4.32
2022-10-14T10:41:36.520Z,4.90
2022-10-14T10:44:36.644Z,4.82
2022-10-14T10:47:31.883Z,5.15
2022-10-14T10:50:30.512Z,4.53
2022-10-14T10:53:34.787Z,4.20
2022-10-14T10:56:15.661Z,5.50
2022-10-14T10:58:56.655Z,4.90
2022-10-14T11:01:36.778Z,4.53
2022-10-14T11:04:20.935Z,4.65
2022-10-14T11:07:15.804Z,4.28
2022-10-14T11:10:10.740Z,4.40
2022-10-14T11:12:47.346Z,4.97
2022-10-14T11:15:28.014Z,5.13
2022-10-14T11:18:01.754Z,5.03
2022-10-14T11:20:39.781Z,4.68
2022-10-14T11:23:30.601Z,4.22
2022-10-14T11:26:04.354Z,5.88
2022-10-14T11:28:45.698Z,4.53
2022-10-14T11:31:25.483Z,4.35
2022-10-14T11:34:08.335Z,5.05
2022-10-14T11:36:46.660Z,4.88
2022-10-14T11:39:36.039Z,4.63
2022-10-14T11:42:15.365Z,4.38
2022-10-14T11:44:46.336Z,5.00
2022-10-14T11:47:27.453Z,4.43
2022-10-14T11:50:01.628Z,3.92
2022-10-14T11:52:36.747Z,3.70
2022-10-14T11:55:14.793Z,4.10
2022-10-14T11:57:49.553Z,3.80
2022-10-14T12:00:38.871Z,3.85
2022-10-14T12:03:14.067Z,3.42
2022-10-14T12:05:48.417Z,3.40
2022-10-14T12:08:23.027Z,3.40
2022-10-14T12:11:02.530Z,3.25
2022-10-14T12:13:39.779Z,3.83
2022-10-14T12:16:17.935Z,3.95
2022-10-14T12:18:51.592Z,2.95
2022-10-14T12:21:29.129Z,3.28
2022-10-14T12:24:04.607Z,3.33
2022-10-14T12:26:51.550Z,3.40
2022-10-14T12:29:22.991Z,3.05
2022-10-14T12:32:07.747Z,2.92
2022-10-14T12:34:40.422Z,3.20
2022-10-14T12:37:43.440Z,3.25
2022-10-14T12:40:31.652Z,3.35
2022-10-14T12:43:33.322Z,3.58
2022-10-14T12:46:06.325Z,3.72
2022-10-14T12:51:13.264Z,2.92
2022-10-14T12:53:49.608Z,3.40
2022-10-14T12:56:33.967Z,3.33
2022-10-14T12:59:07.024Z,3.42
2022-10-14T13:01:36.909Z,3.70
2022-10-14T13:04:19.950Z,3.55
2022-10-14T13:07:45.687Z,3.03
2022-10-14T13:10:48.842Z,3.33
2022-10-14T13:13:56.578Z,3.42
2022-10-14T13:17:01.241Z,3.45
2022-10-14T13:19:56.814Z,4.07
2022-10-14T13:22:42.764Z,4.07
2022-10-14T13:25:30.417Z,3.95
2022-10-14T13:28:12.949Z,3.38
2022-10-14T13:30:52.139Z,3.65
2022-10-14T13:33:32.921Z,3.60
2022-10-14T13:36:13.535Z,3.75
2022-10-14T13:38:46.688Z,3.97
2022-10-14T13:41:34.678Z,4.32
2022-10-14T13:44:08.846Z,3.95
2022-10-14T13:46:41.025Z,4.18
2022-10-14T13:49:21.513Z,4.37
2022-10-14T13:51:53.741Z,4.63
2022-10-14T13:54:26.662Z,4.65
2022-10-14T14:02:54.527Z,6.07
2022-10-14T14:08:35.278Z,5.25
2022-10-14T14:11:16.302Z,4.97
2022-10-14T14:13:59.953Z,5.57
2022-10-14T14:16:42.662Z,5.40
2022-10-14T14:19:22.108Z,5.82
2022-10-14T14:22:11.510Z,8.98
2022-10-14T14:24:48.951Z,7.28
2022-10-14T14:27:22.046Z,5.55
2022-10-14T14:29:57.086Z,5.45
2022-10-14T14:32:33.478Z,6.05
2022-10-14T14:35:08.838Z,6.15
2022-10-14T14:37:55.528Z,5.40
2022-10-14T14:40:41.658Z,6.13
2022-10-14T14:43:16.700Z,6.10
2022-10-14T14:45:49.437Z,6.32
2022-10-14T14:48:34.507Z,6.32
2022-10-14T14:51:18.891Z,5.75
2022-10-14T14:53:54.990Z,5.68
2022-10-14T14:56:35.923Z,5.40
2022-10-14T14:59:09.251Z,5.90
2022-10-14T15:04:14.871Z,5.57
2022-10-14T15:06:51.324Z,5.80
2022-10-14T15:09:27.790Z,5.85
2022-10-14T15:11:58.004Z,5.47
2022-10-14T15:14:31.446Z,5.80
2022-10-14T15:17:00.245Z,4.88
2022-10-14T15:19:59.105Z,4.60
2022-10-14T15:22:36.558Z,3.70
2022-10-14T15:25:12.068Z,3.67
2022-10-14T15:27:46.773Z,5.03
2022-10-14T15:30:33.827Z,4.47
2022-10-14T15:33:05.751Z,4.43
2022-10-14T15:35:38.673Z,2.92
2022-10-14T15:38:16.150Z,3.80
2022-10-14T15:40:46.922Z,4.45
2022-10-14T15:43:20.461Z,3.97
2022-10-14T15:46:10.095Z,3.67
2022-10-14T15:48:43.028Z,3.38
2022-10-14T15:51:16.560Z,3.20
2022-10-14T15:53:45.652Z,3.25
2022-10-14T15:56:17.500Z,3.00
2022-10-14T15:58:46.535Z,3.90
2022-10-14T16:01:20.558Z,3.15
2022-10-14T16:03:49.959Z,3.58
2022-10-14T16:06:20.585Z,3.33
2022-10-14T16:08:51.820Z,3.60
2022-10-14T16:11:25.518Z,3.25
2022-10-14T16:13:55.907Z,3.40
2022-10-14T16:16:34.568Z,3.85
2022-10-14T16:19:03.645Z,4.38
2022-10-14T16:21:33.321Z,4.38
2022-10-14T16:24:06.096Z,4.20
2022-10-14T16:26:38.185Z,4.32
2022-10-14T16:29:06.899Z,3.97
2022-10-14T16:31:37.195Z,4.57
2022-10-14T16:34:09.017Z,4.55
2022-10-14T16:36:41.210Z,5.15
2022-10-14T16:39:10.635Z,4.77
2022-10-14T16:41:43.140Z,4.72
2022-10-14T16:44:24.760Z,5.07
2022-10-14T16:47:11.371Z,4.45
2022-10-14T16:49:41.245Z,4.88
2022-10-14T16:52:11.121Z,6.13
2022-10-14T16:54:39.808Z,6.03
2022-10-14T16:57:09.888Z,5.65
2022-10-14T16:59:39.046Z,6.07
2022-10-14T17:02:11.187Z,6.00
2022-10-14T17:04:45.804Z,6.47
2022-10-14T17:07:18.647Z,6.68
2022-10-14T17:09:48.505Z,5.45
2022-10-14T17:12:40.705Z,6.35
2022-10-14T17:15:16.543Z,5.32
2022-10-14T17:17:47.527Z,5.32
2022-10-14T17:20:22.640Z,4.63
2022-10-14T17:23:09.426Z,4.95
2022-10-14T17:25:52.310Z,5.20
2022-10-14T17:28:37.064Z,4.53
2022-10-14T17:31:28.100Z,5.20
2022-10-14T17:34:15.300Z,4.22
2022-10-14T17:36:55.028Z,3.95
2022-10-14T17:39:30.004Z,4.20
2022-10-14T17:42:13.900Z,4.18
2022-10-14T17:44:53.492Z,4.03
2022-10-14T17:47:35.029Z,4.45
2022-10-14T17:50:18.555Z,4.78
2022-10-14T17:53:06.205Z,4.55
2022-10-14T17:55:41.823Z,4.65
2022-10-14T17:58:18.898Z,3.63
2022-10-14T18:00:50.008Z,4.07
2022-10-14T18:03:30.605Z,3.58
2022-10-14T18:06:14.195Z,2.67
2022-10-14T18:09:03.233Z,2.45
2022-10-14T18:15:04.459Z,1.77
2022-10-14T18:17:45.504Z,1.70
2022-10-14T18:20:27.644Z,1.65
2022-10-14T18:23:04.167Z,1.50
2022-10-14T18:25:38.512Z,1.58
2022-10-14T18:28:25.679Z,1.30
2022-10-14T18:31:02.028Z,1.38
2022-10-14T18:33:55.476Z,1.38
2022-10-14T18:36:42.601Z,1.40
2022-10-14T18:39:23.275Z,1.60
2022-10-14T18:42:07.421Z,2.10
2022-10-14T18:44:59.574Z,2.40
2022-10-14T18:47:41.587Z,2.03
2022-10-14T18:50:27.142Z,2.60
2022-10-14T18:53:16.844Z,2.42
2022-10-14T18:55:56.754Z,2.92
2022-10-14T18:58:32.745Z,3.20
2022-10-14T19:03:57.643Z,2.15
2022-10-14T19:06:35.188Z,2.58
2022-10-14T19:09:16.560Z,2.15
2022-10-14T19:11:53.047Z,3.10
2022-10-14T19:14:28.865Z,2.22
2022-10-14T19:17:00.108Z,2.13
2022-10-14T19:19:39.755Z,2.08
2022-10-14T19:22:20.460Z,2.22
2022-10-14T19:24:54.267Z,2.20
2022-10-14T19:27:25.837Z,1.83
2022-10-14T19:30:02.642Z,1.58
2022-10-14T19:32:58.976Z,2.30
2022-10-14T19:35:58.078Z,1.55
2022-10-14T19:38:40.740Z,1.75
2022-10-14T19:41:18.713Z,1.63
2022-10-14T19:43:59.510Z,1.70
2022-10-14T19:46:41.878Z,1.70
2022-10-14T19:49:22.135Z,1.60
2022-10-14T19:52:02.945Z,1.50
2022-10-14T19:55:08.140Z,1.60
2022-10-14T19:57:46.250Z,1.60
2022-10-14T20:00:25.705Z,1.50
2022-10-14T20:03:06.605Z,1.45
2022-10-14T20:05:38.463Z,1.63
2022-10-14T20:11:13.947Z,1.45
2022-10-14T20:13:47.534Z,2.08
2022-10-14T20:16:34.557Z,2.33
2022-10-14T20:19:15.908Z,1.98
2022-10-14T20:22:05.117Z,1.80
2022-10-14T20:24:48.467Z,1.77
2022-10-14T20:27:27.208Z,1.70
2022-10-14T20:30:04.168Z,2.20
2022-10-14T20:32:45.532Z,2.20
2022-10-14T20:38:09.595Z,3.30
2022-10-14T20:40:44.531Z,2.30
2022-10-14T20:43:21.311Z,2.20
2022-10-14T20:46:02.567Z,2.15
2022-10-14T20:48:40.934Z,3.05
2022-10-14T20:51:21.261Z,2.40
2022-10-14T20:54:01.631Z,2.30
2022-10-14T20:56:47.014Z,2.28
2022-10-14T20:59:28.087Z,2.45
2022-10-14T21:02:03.181Z,2.83
2022-10-14T21:04:39.317Z,2.80
2022-10-14T21:07:22.046Z,2.72
2022-10-14T21:10:03.549Z,2.70
2022-10-14T21:12:49.607Z,2.50
2022-10-14T21:15:32.309Z,3.10
2022-10-14T21:18:19.507Z,3.17
2022-10-14T21:20:49.613Z,2.92
2022-10-14T21:23:30.199Z,2.65
2022-10-14T21:26:15.119Z,2.63
2022-10-14T21:28:54.244Z,2.65
2022-10-14T21:34:28.968Z,3.20
2022-10-14T21:36:59.228Z,2.35
2022-10-14T21:39:34.599Z,2.30
2022-10-14T21:42:04.593Z,1.75
2022-10-14T21:44:37.699Z,1.70
2022-10-14T21:49:51.446Z,2.10
2022-10-14T21:52:39.522Z,1.60
2022-10-14T21:55:25.313Z,1.98
2022-10-14T21:57:54.891Z,1.63
2022-10-14T22:00:37.285Z,1.77
2022-10-14T22:03:11.976Z,1.98
2022-10-14T22:05:45.960Z,1.92
2022-10-14T22:08:17.090Z,2.00
2022-10-14T22:10:53.185Z,2.22
2022-10-14T22:13:29.020Z,1.80
2022-10-14T22:16:06.885Z,2.13
2022-10-14T22:18:46.647Z,2.50
2022-10-14T22:21:35.299Z,3.28
2022-10-14T22:24:38.610Z,2.85
2022-10-14T22:27:38.352Z,2.55
2022-10-14T22:30:19.871Z,1.98
2022-10-14T22:32:53.350Z,1.85
2022-10-14T22:35:31.071Z,1.85
2022-10-14T22:38:08.739Z,1.48
2022-10-14T22:40:43.574Z,1.73
2022-10-14T22:43:18.796Z,1.48
2022-10-14T22:45:55.526Z,1.35
2022-10-14T22:48:34.918Z,1.05
2022-10-14T22:51:28.370Z,1.10
2022-10-14T22:53:59.420Z,1.38
2022-10-14T22:56:35.355Z,1.42
2022-10-14T22:59:09.069Z,1.20
2022-10-14T23:01:46.837Z,1.30
2022-10-14T23:04:17.021Z,1.33
2022-10-14T23:06:57.000Z,1.33
2022-10-14T23:09:28.578Z,1.20
2022-10-14T23:12:07.824Z,1.35
2022-10-14T23:14:36.516Z,1.35
2022-10-14T23:17:14.764Z,1.50
2022-10-14T23:20:01.660Z,1.50
2022-10-14T23:22:40.395Z,1.23
2022-10-14T23:25:18.482Z,1.73
2022-10-14T23:27:54.754Z,1.60
2022-10-14T23:30:37.111Z,1.08
2022-10-14T23:33:37.586Z,1.42
2022-10-14T23:36:39.628Z,1.23
2022-10-14T23:39:30.269Z,1.15
2022-10-14T23:42:13.104Z,1.30
2022-10-14T23:44:49.151Z,1.60
2022-10-14T23:50:32.402Z,1.52
2022-10-14T23:53:12.416Z,1.33
2022-10-14T23:55:54.748Z,1.55
2022-10-14T23:58:25.212Z,1.35
